sensor_id;sensor_type;location;lat;lon;timestamp;pressure;altitude;pressure_sealevel;temperature;humidity
15670;BME280;18524;45.190;5.732;2023-07-31T00:02:06;99374.47;;;22.28;62.84
15670;BME280;18524;45.190;5.732;2023-07-31T00:06:56;99371.69;;;22.15;64.04
15670;BME280;18524;45.190;5.732;2023-07-31T00:11:47;99358.50;;;22.13;65.70
15670;BME280;18524;45.190;5.732;2023-07-31T00:16:37;99353.03;;;22.00;64.26
15670;BME280;18524;45.190;5.732;2023-07-31T00:21:28;99352.91;;;21.87;66.04
15670;BME280;18524;45.190;5.732;2023-07-31T00:26:18;99338.91;;;21.85;63.14
15670;BME280;18524;45.190;5.732;2023-07-31T00:31:09;99334.97;;;21.60;66.28
15670;BME280;18524;45.190;5.732;2023-07-31T00:35:59;99326.25;;;21.51;65.05
15670;BME280;18524;45.190;5.732;2023-07-31T00:40:49;99328.81;;;21.59;68.54
15670;BME280;18524;45.190;5.732;2023-07-31T00:45:40;99319.34;;;21.57;66.55
15670;BME280;18524;45.190;5.732;2023-07-31T00:50:30;99320.72;;;21.52;66.72
15670;BME280;18524;45.190;5.732;2023-07-31T00:55:21;99326.06;;;21.52;67.04
15670;BME280;18524;45.190;5.732;2023-07-31T01:00:12;99327.81;;;21.45;67.65
15670;BME280;18524;45.190;5.732;2023-07-31T01:05:03;99319.81;;;21.24;67.46
15670;BME280;18524;45.190;5.732;2023-07-31T01:10:05;99325.50;;;21.06;69.14
15670;BME280;18524;45.190;5.732;2023-07-31T01:15:16;99333.03;;;21.03;70.83
15670;BME280;18524;45.190;5.732;2023-07-31T01:20:13;99325.31;;;20.78;72.86
15670;BME280;18524;45.190;5.732;2023-07-31T01:25:22;99327.44;;;20.68;73.92
15670;BME280;18524;45.190;5.732;2023-07-31T01:30:22;99326.44;;;20.69;75.37
15670;BME280;18524;45.190;5.732;2023-07-31T01:35:15;99319.00;;;20.65;77.14
15670;BME280;18524;45.190;5.732;2023-07-31T01:40:06;99320.84;;;20.49;78.93
15670;BME280;18524;45.190;5.732;2023-07-31T01:44:57;99320.72;;;20.43;80.64
15670;BME280;18524;45.190;5.732;2023-07-31T01:49:47;99322.03;;;20.47;81.14
15670;BME280;18524;45.190;5.732;2023-07-31T01:54:38;99329.53;;;20.43;79.76
15670;BME280;18524;45.190;5.732;2023-07-31T01:59:28;99321.41;;;20.37;80.48
15670;BME280;18524;45.190;5.732;2023-07-31T02:04:19;99320.38;;;20.46;80.46
15670;BME280;18524;45.190;5.732;2023-07-31T02:09:09;99320.59;;;20.36;77.16
15670;BME280;18524;45.190;5.732;2023-07-31T02:13:59;99317.00;;;20.29;77.72
15670;BME280;18524;45.190;5.732;2023-07-31T02:18:50;99316.53;;;20.25;79.91
15670;BME280;18524;45.190;5.732;2023-07-31T02:23:40;99318.66;;;20.30;82.68
15670;BME280;18524;45.190;5.732;2023-07-31T02:28:30;99311.88;;;20.27;83.70
15670;BME280;18524;45.190;5.732;2023-07-31T02:33:21;99310.56;;;20.23;81.13
15670;BME280;18524;45.190;5.732;2023-07-31T02:38:11;99315.44;;;20.20;78.16
15670;BME280;18524;45.190;5.732;2023-07-31T02:43:02;99312.38;;;20.08;78.73
15670;BME280;18524;45.190;5.732;2023-07-31T02:47:52;99307.75;;;20.02;79.79
15670;BME280;18524;45.190;5.732;2023-07-31T02:52:42;99320.97;;;19.95;80.71
15670;BME280;18524;45.190;5.732;2023-07-31T02:57:33;99320.13;;;19.95;80.24
15670;BME280;18524;45.190;5.732;2023-07-31T03:02:23;99311.97;;;19.96;81.05
15670;BME280;18524;45.190;5.732;2023-07-31T03:07:13;99305.25;;;19.86;81.70
15670;BME280;18524;45.190;5.732;2023-07-31T03:12:04;99306.53;;;19.90;81.63
15670;BME280;18524;45.190;5.732;2023-07-31T03:16:54;99314.78;;;19.80;82.58
15670;BME280;18524;45.190;5.732;2023-07-31T03:21:45;99312.78;;;19.82;83.06
15670;BME280;18524;45.190;5.732;2023-07-31T03:26:35;99319.97;;;19.96;84.33
15670;BME280;18524;45.190;5.732;2023-07-31T03:31:26;99322.44;;;19.98;84.15
15670;BME280;18524;45.190;5.732;2023-07-31T03:36:17;99311.97;;;19.96;83.61
15670;BME280;18524;45.190;5.732;2023-07-31T03:41:07;99314.91;;;20.02;83.38
15670;BME280;18524;45.190;5.732;2023-07-31T03:45:58;99325.09;;;19.98;83.76
15670;BME280;18524;45.190;5.732;2023-07-31T03:50:48;99326.94;;;19.97;84.09
15670;BME280;18524;45.190;5.732;2023-07-31T03:55:38;99334.81;;;19.91;83.95
15670;BME280;18524;45.190;5.732;2023-07-31T04:00:29;99346.53;;;19.82;83.78
15670;BME280;18524;45.190;5.732;2023-07-31T04:05:19;99345.06;;;19.79;85.73
15670;BME280;18524;45.190;5.732;2023-07-31T04:10:10;99343.22;;;19.80;85.39
15670;BME280;18524;45.190;5.732;2023-07-31T04:15:00;99355.91;;;19.70;85.45
15670;BME280;18524;45.190;5.732;2023-07-31T04:19:51;99343.28;;;19.72;87.79
15670;BME280;18524;45.190;5.732;2023-07-31T04:24:41;99329.50;;;19.68;88.91
15670;BME280;18524;45.190;5.732;2023-07-31T04:29:31;99338.53;;;19.59;88.10
15670;BME280;18524;45.190;5.732;2023-07-31T04:34:22;99344.22;;;19.56;89.36
15670;BME280;18524;45.190;5.732;2023-07-31T04:39:12;99362.84;;;19.48;89.44
15670;BME280;18524;45.190;5.732;2023-07-31T04:44:02;99359.38;;;19.47;91.82
15670;BME280;18524;45.190;5.732;2023-07-31T04:48:56;99359.72;;;19.44;91.08
15670;BME280;18524;45.190;5.732;2023-07-31T04:53:46;99359.81;;;19.59;90.22
15670;BME280;18524;45.190;5.732;2023-07-31T04:58:37;99365.28;;;19.65;89.30
15670;BME280;18524;45.190;5.732;2023-07-31T05:03:27;99370.84;;;19.79;87.46
15670;BME280;18524;45.190;5.732;2023-07-31T05:08:17;99368.78;;;19.89;86.91
15670;BME280;18524;45.190;5.732;2023-07-31T05:13:08;99369.59;;;19.66;89.54
15670;BME280;18524;45.190;5.732;2023-07-31T05:17:58;99368.56;;;19.76;88.88
15670;BME280;18524;45.190;5.732;2023-07-31T05:22:49;99364.22;;;19.75;89.14
15670;BME280;18524;45.190;5.732;2023-07-31T05:27:40;99362.81;;;19.87;89.58
15670;BME280;18524;45.190;5.732;2023-07-31T05:32:31;99355.56;;;19.95;87.96
15670;BME280;18524;45.190;5.732;2023-07-31T05:37:21;99360.31;;;19.85;88.25
15670;BME280;18524;45.190;5.732;2023-07-31T05:42:12;99359.44;;;19.93;88.15
15670;BME280;18524;45.190;5.732;2023-07-31T05:47:02;99367.31;;;20.09;86.70
15670;BME280;18524;45.190;5.732;2023-07-31T05:51:53;99361.81;;;20.63;84.62
15670;BME280;18524;45.190;5.732;2023-07-31T05:56:43;99355.50;;;21.59;78.68
15670;BME280;18524;45.190;5.732;2023-07-31T06:01:33;99358.44;;;21.85;74.81
15670;BME280;18524;45.190;5.732;2023-07-31T06:06:24;99348.63;;;22.35;71.42
15670;BME280;18524;45.190;5.732;2023-07-31T06:11:14;99336.09;;;22.36;70.21
15670;BME280;18524;45.190;5.732;2023-07-31T06:16:05;99336.34;;;22.41;70.40
15670;BME280;18524;45.190;5.732;2023-07-31T06:20:56;99329.41;;;22.81;68.02
15670;BME280;18524;45.190;5.732;2023-07-31T06:25:46;99336.03;;;22.92;65.65
15670;BME280;18524;45.190;5.732;2023-07-31T06:30:37;99339.97;;;23.44;63.78
15670;BME280;18524;45.190;5.732;2023-07-31T06:35:27;99335.56;;;24.04;61.30
15670;BME280;18524;45.190;5.732;2023-07-31T06:40:17;99326.50;;;24.24;59.33
15670;BME280;18524;45.190;5.732;2023-07-31T06:45:09;99313.19;;;24.89;57.62
15670;BME280;18524;45.190;5.732;2023-07-31T06:50:00;99327.94;;;25.24;54.61
15670;BME280;18524;45.190;5.732;2023-07-31T06:55:14;99331.53;;;25.50;53.61
15670;BME280;18524;45.190;5.732;2023-07-31T07:00:07;99316.63;;;25.92;52.71
15670;BME280;18524;45.190;5.732;2023-07-31T07:04:58;99312.13;;;26.11;52.00
15670;BME280;18524;45.190;5.732;2023-07-31T07:09:49;99296.88;;;26.05;50.12
15670;BME280;18524;45.190;5.732;2023-07-31T07:14:39;99305.03;;;25.67;51.64
15670;BME280;18524;45.190;5.732;2023-07-31T07:19:29;99299.81;;;25.97;50.13
15670;BME280;18524;45.190;5.732;2023-07-31T07:24:20;99307.69;;;26.23;49.20
15670;BME280;18524;45.190;5.732;2023-07-31T07:29:10;99295.88;;;26.49;48.04
15670;BME280;18524;45.190;5.732;2023-07-31T07:34:01;99293.84;;;26.44;47.61
15670;BME280;18524;45.190;5.732;2023-07-31T07:38:52;99302.78;;;27.00;46.33
15670;BME280;18524;45.190;5.732;2023-07-31T07:43:42;99293.69;;;27.31;44.55
15670;BME280;18524;45.190;5.732;2023-07-31T07:48:33;99299.03;;;27.01;44.56
15670;BME280;18524;45.190;5.732;2023-07-31T07:53:23;99294.31;;;27.15;44.51
15670;BME280;18524;45.190;5.732;2023-07-31T07:58:13;99283.84;;;27.06;43.61
15670;BME280;18524;45.190;5.732;2023-07-31T08:03:04;99277.25;;;27.51;43.49
15670;BME280;18524;45.190;5.732;2023-07-31T08:07:54;99279.03;;;27.27;44.27
15670;BME280;18524;45.190;5.732;2023-07-31T08:12:45;99263.19;;;27.19;44.30
15670;BME280;18524;45.190;5.732;2023-07-31T08:17:35;99266.78;;;27.84;42.76
15670;BME280;18524;45.190;5.732;2023-07-31T08:22:25;99261.34;;;28.26;42.16
15670;BME280;18524;45.190;5.732;2023-07-31T08:27:16;99258.41;;;28.27;43.09
15670;BME280;18524;45.190;5.732;2023-07-31T08:32:06;99261.88;;;28.63;41.61
15670;BME280;18524;45.190;5.732;2023-07-31T08:36:56;99258.75;;;28.94;41.87
15670;BME280;18524;45.190;5.732;2023-07-31T08:41:47;99246.91;;;29.24;40.83
15670;BME280;18524;45.190;5.732;2023-07-31T08:46:38;99245.34;;;29.56;38.39
15670;BME280;18524;45.190;5.732;2023-07-31T08:51:29;99242.25;;;29.65;38.63
15670;BME280;18524;45.190;5.732;2023-07-31T08:56:20;99245.69;;;29.77;37.42
15670;BME280;18524;45.190;5.732;2023-07-31T09:01:11;99243.22;;;29.92;36.92
15670;BME280;18524;45.190;5.732;2023-07-31T09:06:03;99236.31;;;30.01;35.87
15670;BME280;18524;45.190;5.732;2023-07-31T09:10:59;99217.31;;;29.96;35.80
15670;BME280;18524;45.190;5.732;2023-07-31T09:15:50;99216.66;;;30.23;36.21
15670;BME280;18524;45.190;5.732;2023-07-31T09:20:40;99203.59;;;30.58;34.82
15670;BME280;18524;45.190;5.732;2023-07-31T09:25:31;99197.31;;;30.53;35.83
15670;BME280;18524;45.190;5.732;2023-07-31T09:30:21;99201.66;;;30.54;33.58
15670;BME280;18524;45.190;5.732;2023-07-31T09:35:27;99205.47;;;30.36;33.70
15670;BME280;18524;45.190;5.732;2023-07-31T09:40:30;99187.09;;;30.38;33.56
15670;BME280;18524;45.190;5.732;2023-07-31T09:45:22;99189.09;;;30.26;34.65
15670;BME280;18524;45.190;5.732;2023-07-31T09:50:14;99183.09;;;30.45;34.83
15670;BME280;18524;45.190;5.732;2023-07-31T09:55:04;99175.28;;;30.66;32.85
15670;BME280;18524;45.190;5.732;2023-07-31T09:59:55;99162.16;;;30.36;33.48
15670;BME280;18524;45.190;5.732;2023-07-31T10:04:49;99165.34;;;30.98;33.83
15670;BME280;18524;45.190;5.732;2023-07-31T10:09:39;99147.59;;;31.45;32.75
15670;BME280;18524;45.190;5.732;2023-07-31T10:14:30;99144.31;;;31.37;31.88
15670;BME280;18524;45.190;5.732;2023-07-31T10:19:21;99134.31;;;31.80;30.62
15670;BME280;18524;45.190;5.732;2023-07-31T10:24:12;99129.06;;;31.63;31.45
15670;BME280;18524;45.190;5.732;2023-07-31T10:29:04;99118.19;;;32.00;32.40
15670;BME280;18524;45.190;5.732;2023-07-31T10:33:57;99108.53;;;32.30;31.62
15670;BME280;18524;45.190;5.732;2023-07-31T10:38:49;99105.19;;;32.80;30.96
15670;BME280;18524;45.190;5.732;2023-07-31T10:43:40;99102.47;;;33.01;30.55
15670;BME280;18524;45.190;5.732;2023-07-31T10:48:34;99087.00;;;33.32;31.06
15670;BME280;18524;45.190;5.732;2023-07-31T10:53:29;99083.69;;;33.65;30.69
15670;BME280;18524;45.190;5.732;2023-07-31T10:58:21;99083.13;;;33.68;29.79
15670;BME280;18524;45.190;5.732;2023-07-31T11:03:18;99072.69;;;34.06;30.44
15670;BME280;18524;45.190;5.732;2023-07-31T11:08:16;99066.25;;;34.46;30.43
15670;BME280;18524;45.190;5.732;2023-07-31T11:13:07;99062.47;;;34.42;27.69
15670;BME280;18524;45.190;5.732;2023-07-31T11:17:57;99050.66;;;34.57;29.18
15670;BME280;18524;45.190;5.732;2023-07-31T11:22:48;99041.44;;;34.92;28.13
15670;BME280;18524;45.190;5.732;2023-07-31T11:27:39;99041.06;;;35.03;28.03
15670;BME280;18524;45.190;5.732;2023-07-31T11:32:30;99040.06;;;35.23;27.62
15670;BME280;18524;45.190;5.732;2023-07-31T11:37:21;99023.19;;;35.50;28.68
15670;BME280;18524;45.190;5.732;2023-07-31T11:42:11;99015.06;;;35.45;27.46
15670;BME280;18524;45.190;5.732;2023-07-31T11:47:02;99000.81;;;35.72;27.18
15670;BME280;18524;45.190;5.732;2023-07-31T11:51:53;99003.34;;;36.11;26.64
15670;BME280;18524;45.190;5.732;2023-07-31T11:56:44;98991.16;;;36.41;25.28
15670;BME280;18524;45.190;5.732;2023-07-31T12:01:35;98995.59;;;36.18;25.83
15670;BME280;18524;45.190;5.732;2023-07-31T12:06:37;98985.88;;;36.31;26.95
15670;BME280;18524;45.190;5.732;2023-07-31T12:11:28;98972.75;;;36.66;26.42
15670;BME280;18524;45.190;5.732;2023-07-31T12:16:18;98966.28;;;36.75;25.77
15670;BME280;18524;45.190;5.732;2023-07-31T12:21:09;98955.66;;;37.06;25.23
15670;BME280;18524;45.190;5.732;2023-07-31T12:31:00;98933.91;;;37.42;24.92
15670;BME280;18524;45.190;5.732;2023-07-31T12:35:51;98940.28;;;37.51;25.24
15670;BME280;18524;45.190;5.732;2023-07-31T12:40:42;98929.13;;;37.75;25.39
15670;BME280;18524;45.190;5.732;2023-07-31T12:45:32;98920.34;;;38.01;25.30
15670;BME280;18524;45.190;5.732;2023-07-31T12:50:23;98909.03;;;37.94;25.42
15670;BME280;18524;45.190;5.732;2023-07-31T12:55:13;98893.66;;;38.06;25.19
15670;BME280;18524;45.190;5.732;2023-07-31T13:00:05;98892.78;;;37.97;24.76
15670;BME280;18524;45.190;5.732;2023-07-31T13:04:56;98883.41;;;37.76;26.22
15670;BME280;18524;45.190;5.732;2023-07-31T13:09:47;98877.19;;;37.84;24.63
15670;BME280;18524;45.190;5.732;2023-07-31T13:14:37;98877.38;;;37.88;24.46
15670;BME280;18524;45.190;5.732;2023-07-31T13:19:27;98869.41;;;37.64;25.30
15670;BME280;18524;45.190;5.732;2023-07-31T13:24:18;98851.59;;;37.52;26.71
15670;BME280;18524;45.190;5.732;2023-07-31T13:29:08;98846.75;;;37.22;26.51
15670;BME280;18524;45.190;5.732;2023-07-31T13:33:58;98835.63;;;37.32;26.55
15670;BME280;18524;45.190;5.732;2023-07-31T13:38:49;98834.09;;;36.99;25.16
15670;BME280;18524;45.190;5.732;2023-07-31T13:43:39;98820.97;;;36.41;25.76
15670;BME280;18524;45.190;5.732;2023-07-31T13:48:31;98824.75;;;35.75;26.23
15670;BME280;18524;45.190;5.732;2023-07-31T13:53:21;98817.16;;;35.29;27.92
15670;BME280;18524;45.190;5.732;2023-07-31T13:58:11;98813.31;;;35.11;27.28
15670;BME280;18524;45.190;5.732;2023-07-31T14:03:02;98808.78;;;34.77;27.15
15670;BME280;18524;45.190;5.732;2023-07-31T14:07:52;98807.97;;;34.24;27.57
15670;BME280;18524;45.190;5.732;2023-07-31T14:12:42;98797.91;;;33.80;28.73
15670;BME280;18524;45.190;5.732;2023-07-31T14:17:33;98802.75;;;33.54;28.53
15670;BME280;18524;45.190;5.732;2023-07-31T14:22:28;98798.84;;;33.16;29.05
15670;BME280;18524;45.190;5.732;2023-07-31T14:27:19;98799.53;;;32.83;28.59
15670;BME280;18524;45.190;5.732;2023-07-31T14:32:09;98794.13;;;32.57;29.77
15670;BME280;18524;45.190;5.732;2023-07-31T14:37:00;98785.75;;;32.33;29.80
15670;BME280;18524;45.190;5.732;2023-07-31T14:41:50;98776.78;;;32.23;30.06
15670;BME280;18524;45.190;5.732;2023-07-31T14:46:41;98776.53;;;32.19;29.20
15670;BME280;18524;45.190;5.732;2023-07-31T14:51:31;98768.66;;;31.92;29.91
15670;BME280;18524;45.190;5.732;2023-07-31T14:56:21;98772.47;;;31.76;30.63
15670;BME280;18524;45.190;5.732;2023-07-31T15:01:12;98765.69;;;31.74;30.28
15670;BME280;18524;45.190;5.732;2023-07-31T15:06:02;98759.44;;;31.63;29.92
15670;BME280;18524;45.190;5.732;2023-07-31T15:10:54;98754.25;;;31.56;29.65
15670;BME280;18524;45.190;5.732;2023-07-31T15:15:47;98759.38;;;31.42;30.27
15670;BME280;18524;45.190;5.732;2023-07-31T15:20:37;98749.09;;;31.39;30.39
15670;BME280;18524;45.190;5.732;2023-07-31T15:25:28;98754.50;;;31.29;30.53
15670;BME280;18524;45.190;5.732;2023-07-31T15:30:18;98735.25;;;31.26;29.84
15670;BME280;18524;45.190;5.732;2023-07-31T15:35:08;98732.19;;;31.12;31.01
15670;BME280;18524;45.190;5.732;2023-07-31T15:39:59;98726.75;;;31.02;31.04
15670;BME280;18524;45.190;5.732;2023-07-31T15:44:49;98724.31;;;31.00;30.78
15670;BME280;18524;45.190;5.732;2023-07-31T15:49:40;98711.22;;;30.82;32.00
15670;BME280;18524;45.190;5.732;2023-07-31T15:54:30;98711.28;;;30.92;31.10
15670;BME280;18524;45.190;5.732;2023-07-31T15:59:21;98699.63;;;30.87;31.98
15670;BME280;18524;45.190;5.732;2023-07-31T16:04:11;98693.91;;;30.78;31.78
15670;BME280;18524;45.190;5.732;2023-07-31T16:09:01;98691.97;;;30.73;31.89
15670;BME280;18524;45.190;5.732;2023-07-31T16:13:52;98697.41;;;30.73;31.82
15670;BME280;18524;45.190;5.732;2023-07-31T16:18:42;98689.19;;;30.58;32.20
15670;BME280;18524;45.190;5.732;2023-07-31T16:23:32;98683.22;;;30.51;32.35
15670;BME280;18524;45.190;5.732;2023-07-31T16:28:23;98684.56;;;30.48;32.48
15670;BME280;18524;45.190;5.732;2023-07-31T16:33:13;98669.09;;;30.44;32.29
15670;BME280;18524;45.190;5.732;2023-07-31T16:38:05;98667.19;;;30.39;32.59
15670;BME280;18524;45.190;5.732;2023-07-31T16:42:55;98682.56;;;30.29;33.01
15670;BME280;18524;45.190;5.732;2023-07-31T16:47:46;98683.63;;;30.23;33.67
15670;BME280;18524;45.190;5.732;2023-07-31T16:52:36;98685.78;;;30.21;32.44
15670;BME280;18524;45.190;5.732;2023-07-31T16:57:26;98698.19;;;30.16;33.05
15670;BME280;18524;45.190;5.732;2023-07-31T17:02:17;98707.94;;;30.17;32.51
15670;BME280;18524;45.190;5.732;2023-07-31T17:07:07;98692.63;;;29.96;33.11
15670;BME280;18524;45.190;5.732;2023-07-31T17:11:59;98698.78;;;29.86;33.87
15670;BME280;18524;45.190;5.732;2023-07-31T17:16:50;98704.97;;;29.82;33.39
15670;BME280;18524;45.190;5.732;2023-07-31T17:21:40;98715.22;;;29.80;33.32
15670;BME280;18524;45.190;5.732;2023-07-31T17:26:30;98712.38;;;29.65;33.76
15670;BME280;18524;45.190;5.732;2023-07-31T17:31:21;98711.22;;;29.55;33.80
15670;BME280;18524;45.190;5.732;2023-07-31T17:36:11;98710.41;;;29.55;33.15
15670;BME280;18524;45.190;5.732;2023-07-31T17:41:01;98701.41;;;29.44;33.58
15670;BME280;18524;45.190;5.732;2023-07-31T17:45:52;98691.41;;;29.45;32.88
15670;BME280;18524;45.190;5.732;2023-07-31T17:50:47;98692.41;;;29.39;34.00
15670;BME280;18524;45.190;5.732;2023-07-31T17:55:39;98682.34;;;29.34;33.94
15670;BME280;18524;45.190;5.732;2023-07-31T18:00:30;98690.16;;;29.31;33.85
15670;BME280;18524;45.190;5.732;2023-07-31T18:05:21;98686.66;;;29.30;34.29
15670;BME280;18524;45.190;5.732;2023-07-31T18:10:11;98681.44;;;29.23;34.58
15670;BME280;18524;45.190;5.732;2023-07-31T18:15:02;98686.50;;;29.15;35.01
15670;BME280;18524;45.190;5.732;2023-07-31T18:19:52;98683.47;;;29.06;36.08
15670;BME280;18524;45.190;5.732;2023-07-31T18:24:42;98685.53;;;28.99;35.99
15670;BME280;18524;45.190;5.732;2023-07-31T18:29:33;98688.88;;;28.84;36.38
15670;BME280;18524;45.190;5.732;2023-07-31T18:34:25;98692.50;;;28.73;36.81
15670;BME280;18524;45.190;5.732;2023-07-31T18:39:15;98698.88;;;28.62;37.02
15670;BME280;18524;45.190;5.732;2023-07-31T18:44:06;98696.53;;;28.49;37.12
15670;BME280;18524;45.190;5.732;2023-07-31T18:48:56;98696.66;;;28.37;37.89
15670;BME280;18524;45.190;5.732;2023-07-31T18:53:46;98693.56;;;28.28;37.98
15670;BME280;18524;45.190;5.732;2023-07-31T18:58:37;98695.56;;;28.21;39.46
15670;BME280;18524;45.190;5.732;2023-07-31T19:03:27;98690.63;;;28.13;39.72
15670;BME280;18524;45.190;5.732;2023-07-31T19:08:18;98696.38;;;28.00;40.89
15670;BME280;18524;45.190;5.732;2023-07-31T19:13:08;98698.91;;;27.90;42.30
15670;BME280;18524;45.190;5.732;2023-07-31T19:18:00;98703.56;;;27.78;43.72
15670;BME280;18524;45.190;5.732;2023-07-31T19:22:50;98700.97;;;27.66;45.48
15670;BME280;18524;45.190;5.732;2023-07-31T19:27:41;98700.44;;;27.52;45.41
15670;BME280;18524;45.190;5.732;2023-07-31T19:32:31;98712.09;;;27.41;44.83
15670;BME280;18524;45.190;5.732;2023-07-31T19:37:22;98722.19;;;27.34;45.18
15670;BME280;18524;45.190;5.732;2023-07-31T19:42:12;98725.38;;;27.31;44.41
15670;BME280;18524;45.190;5.732;2023-07-31T19:47:03;98734.66;;;27.23;44.57
15670;BME280;18524;45.190;5.732;2023-07-31T19:51:53;98742.31;;;27.15;44.81
15670;BME280;18524;45.190;5.732;2023-07-31T19:56:44;98748.41;;;27.10;45.11
15670;BME280;18524;45.190;5.732;2023-07-31T20:01:34;98749.97;;;26.94;44.72
15670;BME280;18524;45.190;5.732;2023-07-31T20:06:24;98753.03;;;26.86;43.65
15670;BME280;18524;45.190;5.732;2023-07-31T20:11:15;98751.78;;;26.77;44.35
15670;BME280;18524;45.190;5.732;2023-07-31T20:16:06;98750.72;;;26.66;44.63
15670;BME280;18524;45.190;5.732;2023-07-31T20:20:56;98752.38;;;26.56;44.27
15670;BME280;18524;45.190;5.732;2023-07-31T20:25:47;98761.06;;;26.46;46.09
15670;BME280;18524;45.190;5.732;2023-07-31T20:30:37;98753.31;;;26.26;49.00
15670;BME280;18524;45.190;5.732;2023-07-31T20:35:27;98749.69;;;26.21;50.33
15670;BME280;18524;45.190;5.732;2023-07-31T20:40:18;98754.97;;;26.15;50.69
15670;BME280;18524;45.190;5.732;2023-07-31T20:45:09;98754.13;;;26.15;49.91
15670;BME280;18524;45.190;5.732;2023-07-31T20:49:59;98750.03;;;26.12;49.29
15670;BME280;18524;45.190;5.732;2023-07-31T20:54:50;98744.09;;;26.10;48.38
15670;BME280;18524;45.190;5.732;2023-07-31T20:59:42;98738.94;;;26.09;48.66
15670;BME280;18524;45.190;5.732;2023-07-31T21:04:32;98733.91;;;26.01;48.73
15670;BME280;18524;45.190;5.732;2023-07-31T21:09:23;98730.84;;;25.97;49.22
15670;BME280;18524;45.190;5.732;2023-07-31T21:14:14;98716.97;;;25.89;49.48
15670;BME280;18524;45.190;5.732;2023-07-31T21:19:04;98713.56;;;25.81;49.78
15670;BME280;18524;45.190;5.732;2023-07-31T21:23:55;98710.53;;;25.78;50.31
15670;BME280;18524;45.190;5.732;2023-07-31T21:28:45;98701.53;;;25.72;50.78
15670;BME280;18524;45.190;5.732;2023-07-31T21:33:35;98702.47;;;25.66;51.11
15670;BME280;18524;45.190;5.732;2023-07-31T21:38:26;98704.84;;;25.56;51.61
15670;BME280;18524;45.190;5.732;2023-07-31T21:43:16;98695.84;;;25.39;52.11
15670;BME280;18524;45.190;5.732;2023-07-31T21:48:06;98684.63;;;25.30;53.55
15670;BME280;18524;45.190;5.732;2023-07-31T21:52:57;98682.81;;;25.24;53.69
15670;BME280;18524;45.190;5.732;2023-07-31T21:57:47;98679.78;;;25.20;54.09
15670;BME280;18524;45.190;5.732;2023-07-31T22:02:37;98680.00;;;25.19;53.08
15670;BME280;18524;45.190;5.732;2023-07-31T22:07:28;98672.56;;;25.21;51.32
15670;BME280;18524;45.190;5.732;2023-07-31T22:12:18;98673.81;;;25.07;51.66
15670;BME280;18524;45.190;5.732;2023-07-31T22:17:09;98669.47;;;25.06;52.30
15670;BME280;18524;45.190;5.732;2023-07-31T22:21:59;98670.97;;;25.02;51.84
15670;BME280;18524;45.190;5.732;2023-07-31T22:26:50;98668.38;;;24.95;52.28
15670;BME280;18524;45.190;5.732;2023-07-31T22:31:41;98672.91;;;24.94;53.28
15670;BME280;18524;45.190;5.732;2023-07-31T22:36:31;98660.16;;;24.90;53.67
15670;BME280;18524;45.190;5.732;2023-07-31T22:41:22;98658.16;;;24.85;53.41
15670;BME280;18524;45.190;5.732;2023-07-31T22:46:12;98667.13;;;24.79;53.68
15670;BME280;18524;45.190;5.732;2023-07-31T22:51:04;98650.66;;;24.76;54.40
15670;BME280;18524;45.190;5.732;2023-07-31T22:55:55;98653.81;;;24.73;54.91
15670;BME280;18524;45.190;5.732;2023-07-31T23:00:45;98648.66;;;24.71;54.42
15670;BME280;18524;45.190;5.732;2023-07-31T23:05:35;98646.66;;;24.67;55.01
15670;BME280;18524;45.190;5.732;2023-07-31T23:10:26;98641.06;;;24.68;55.08
15670;BME280;18524;45.190;5.732;2023-07-31T23:15:18;98635.47;;;24.70;55.47
15670;BME280;18524;45.190;5.732;2023-07-31T23:20:09;98637.56;;;24.68;54.96
15670;BME280;18524;45.190;5.732;2023-07-31T23:24:59;98642.81;;;24.62;55.01
15670;BME280;18524;45.190;5.732;2023-07-31T23:29:49;98631.72;;;24.59;55.18
15670;BME280;18524;45.190;5.732;2023-07-31T23:34:40;98631.78;;;24.52;54.99
15670;BME280;18524;45.190;5.732;2023-07-31T23:39:31;98636.78;;;24.49;54.75
15670;BME280;18524;45.190;5.732;2023-07-31T23:44:22;98616.91;;;24.38;55.05
15670;BME280;18524;45.190;5.732;2023-07-31T23:49:16;98608.13;;;24.31;54.65
15670;BME280;18524;45.190;5.732;2023-07-31T23:54:07;98618.88;;;24.31;55.62
15670;BME280;18524;45.190;5.732;2023-07-31T23:58:57;98619.22;;;24.35;55.15
